Time;durP1;ratioP1;P1;durP2;ratioP2;P2;SDS_P1;SDS_P2;PMS_P1;PMS_P2;Temp;Humidity;BMP_temperature;BMP_pressure;BME280_temperature;BME280_humidity;BME280_pressure;Samples;Min_cycle;Max_cycle;Signal;HPM_P1;HPM_P2
2022/04/05 00:02:16;;;;;;;7.40;5.32;;;3.80;97.10;;;;;;5064321;28;20037;-68
2022/04/05 00:04:42;;;;;;;6.00;5.40;;;3.80;97.10;;;;;;5070187;28;20101;-68
2022/04/05 00:07:08;;;;;;;5.88;4.90;;;3.80;97.10;;;;;;5069821;28;20666;-67
2022/04/05 00:09:33;;;;;;;8.70;5.05;;;3.80;97.00;;;;;;5064152;28;20055;-68
2022/04/05 00:11:59;;;;;;;8.13;5.30;;;3.80;97.00;;;;;;5072847;28;20036;-68
2022/04/05 00:14:25;;;;;;;7.47;5.43;;;3.80;97.00;;;;;;5066997;28;20045;-68
2022/04/05 00:16:50;;;;;;;6.55;5.43;;;4.00;97.00;;;;;;5067337;28;20035;-68
2022/04/05 00:19:19;;;;;;;7.07;5.68;;;4.00;96.90;;;;;;5069818;28;20039;-68
2022/04/05 00:21:45;;;;;;;7.43;6.03;;;4.00;96.80;;;;;;5071321;28;20048;-68
2022/04/05 00:24:11;;;;;;;8.30;5.15;;;4.10;96.80;;;;;;5069508;28;20044;-68
2022/04/05 00:26:37;;;;;;;9.88;5.28;;;4.30;96.70;;;;;;5070852;28;20424;-68
2022/04/05 00:29:03;;;;;;;10.00;4.93;;;4.40;96.30;;;;;;5071808;28;20044;-68
2022/04/05 00:31:29;;;;;;;8.27;5.60;;;4.50;96.10;;;;;;5078260;28;20115;-68
2022/04/05 00:33:54;;;;;;;8.70;6.15;;;4.60;96.10;;;;;;5076418;28;20045;-68
2022/04/05 00:36:20;;;;;;;6.18;5.25;;;4.80;95.90;;;;;;5073160;28;20048;-68
2022/04/05 00:38:46;;;;;;;6.88;4.85;;;4.90;95.60;;;;;;5074457;28;20073;-68
2022/04/05 00:41:12;;;;;;;8.73;6.10;;;5.10;95.30;;;;;;5049033;28;20044;-68
2022/04/05 00:43:37;;;;;;;8.80;5.38;;;5.20;95.10;;;;;;5052587;28;20040;-69
2022/04/05 00:46:03;;;;;;;6.93;5.38;;;5.30;94.70;;;;;;5052457;28;20052;-68
2022/04/05 00:48:50;;;;;;;6.55;5.38;;;5.40;94.70;;;;;;5058350;28;20118;-68
2022/04/05 00:51:17;;;;;;;7.13;5.35;;;5.40;94.50;;;;;;5047073;28;20715;-68
2022/04/05 00:53:48;;;;;;;6.40;5.43;;;5.40;94.40;;;;;;5049352;28;20120;-68
2022/04/05 00:56:19;;;;;;;6.10;5.10;;;5.40;94.40;;;;;;5053350;28;20024;-68
2022/04/05 00:58:48;;;;;;;6.43;4.70;;;5.40;94.30;;;;;;5052865;28;20033;-68
2022/04/05 01:01:18;;;;;;;5.75;4.90;;;5.40;94.10;;;;;;5047914;28;20041;-68
2022/04/05 01:03:49;;;;;;;7.07;5.00;;;5.50;93.80;;;;;;5054734;28;20041;-68
2022/04/05 01:06:19;;;;;;;7.78;5.13;;;5.60;93.80;;;;;;5050660;28;20029;-68
2022/04/05 01:08:48;;;;;;;6.18;5.07;;;5.70;93.70;;;;;;5048193;28;20062;-68
2022/04/05 01:11:14;;;;;;;6.25;4.53;;;5.70;93.40;;;;;;5049114;28;20045;-68
2022/04/05 01:13:40;;;;;;;5.05;4.47;;;5.80;93.40;;;;;;5050334;28;20032;-68
2022/04/05 01:16:06;;;;;;;4.70;4.05;;;5.80;93.60;;;;;;5050809;28;20037;-68
2022/04/05 01:18:33;;;;;;;5.30;4.80;;;5.80;93.70;;;;;;5052186;28;20032;-68
2022/04/05 01:20:59;;;;;;;5.75;4.50;;;5.90;93.70;;;;;;5051509;28;20056;-68
2022/04/05 01:23:25;;;;;;;4.82;4.18;;;5.90;93.70;;;;;;5050905;28;20450;-68
2022/04/05 01:25:51;;;;;;;6.13;4.38;;;5.90;93.50;;;;;;5047909;28;20059;-68
2022/04/05 01:28:18;;;;;;;5.43;4.35;;;6.00;93.80;;;;;;5054518;28;20408;-68
2022/04/05 01:30:43;;;;;;;5.35;4.60;;;6.00;93.70;;;;;;5049049;28;20461;-68
2022/04/05 01:33:09;;;;;;;5.82;4.60;;;6.00;93.80;;;;;;5054882;28;20028;-68
2022/04/05 01:35:35;;;;;;;5.28;4.60;;;6.00;93.80;;;;;;5054684;28;20049;-69
2022/04/05 01:38:04;;;;;;;6.47;4.82;;;6.00;93.80;;;;;;5050580;28;20052;-69
2022/04/05 01:40:30;;;;;;;5.97;4.63;;;6.00;93.80;;;;;;5056238;28;20049;-69
2022/04/05 01:42:56;;;;;;;6.00;4.50;;;6.10;93.70;;;;;;5050664;28;20040;-69
2022/04/05 01:45:21;;;;;;;9.32;5.20;;;6.00;93.50;;;;;;5050174;28;20048;-68
2022/04/05 01:47:47;;;;;;;5.00;4.50;;;6.10;93.60;;;;;;5054854;28;20025;-69
2022/04/05 01:50:13;;;;;;;7.20;4.53;;;6.10;93.70;;;;;;5050472;28;20540;-68
2022/04/05 01:52:38;;;;;;;6.13;5.28;;;6.00;93.70;;;;;;5042318;28;20601;-68
2022/04/05 01:55:08;;;;;;;5.50;4.20;;;6.10;93.90;;;;;;5048815;28;20037;-68
2022/04/05 01:57:33;;;;;;;6.72;4.57;;;6.10;93.80;;;;;;5056069;28;20024;-68
2022/04/05 01:59:59;;;;;;;9.35;4.97;;;6.10;93.80;;;;;;5050741;28;20052;-68
2022/04/05 02:02:25;;;;;;;5.82;4.90;;;6.10;93.70;;;;;;5046489;28;20036;-68
2022/04/05 02:04:51;;;;;;;6.43;4.97;;;6.10;93.70;;;;;;5048194;28;20106;-68
2022/04/05 02:07:18;;;;;;;5.47;4.60;;;6.10;93.90;;;;;;5046761;28;20118;-68
2022/04/05 02:09:44;;;;;;;8.57;5.05;;;6.00;93.70;;;;;;5046804;28;20033;-68
2022/04/05 02:12:11;;;;;;;6.07;4.53;;;6.00;93.50;;;;;;5046539;28;20037;-68
2022/04/05 02:14:38;;;;;;;7.50;5.32;;;6.10;93.50;;;;;;5049536;28;20040;-68
2022/04/05 02:17:05;;;;;;;7.75;4.90;;;6.10;93.50;;;;;;5048605;28;20037;-69
2022/04/05 02:19:30;;;;;;;4.75;4.35;;;6.10;93.30;;;;;;5051385;28;20048;-68
2022/04/05 02:21:57;;;;;;;6.38;4.97;;;6.20;93.50;;;;;;5053697;28;20097;-68
2022/04/05 02:24:22;;;;;;;6.05;4.90;;;6.20;93.70;;;;;;5049080;28;20059;-69
2022/04/05 02:26:49;;;;;;;5.50;4.68;;;6.20;93.30;;;;;;5052439;28;20525;-69
2022/04/05 02:29:15;;;;;;;5.22;4.57;;;6.20;93.50;;;;;;5050061;28;20137;-68
2022/04/05 02:31:41;;;;;;;5.10;4.30;;;6.10;93.60;;;;;;5052903;28;20124;-69
2022/04/05 02:34:08;;;;;;;5.18;4.68;;;6.10;93.50;;;;;;5047357;28;20045;-69
2022/04/05 02:36:33;;;;;;;7.18;5.18;;;6.10;93.70;;;;;;5056929;28;20048;-68
2022/04/05 02:39:00;;;;;;;7.65;4.80;;;6.10;93.80;;;;;;5051740;28;20041;-68
2022/04/05 02:41:26;;;;;;;6.85;5.03;;;6.20;94.20;;;;;;5071209;28;20459;-68
2022/04/05 02:43:52;;;;;;;7.82;5.18;;;6.10;93.90;;;;;;5071912;28;20043;-68
2022/04/05 02:46:18;;;;;;;7.93;5.07;;;6.20;94.00;;;;;;5069931;28;20056;-68
2022/04/05 02:48:45;;;;;;;7.03;4.57;;;6.20;93.80;;;;;;5069857;28;20058;-68
2022/04/05 02:51:12;;;;;;;8.93;5.32;;;6.20;93.90;;;;;;5070699;28;20148;-69
2022/04/05 02:53:38;;;;;;;6.10;5.20;;;6.20;94.10;;;;;;5069719;28;20036;-68
2022/04/05 02:56:04;;;;;;;6.20;5.32;;;6.20;94.00;;;;;;5074739;28;20436;-68
2022/04/05 02:58:30;;;;;;;5.78;4.75;;;6.20;94.20;;;;;;5067452;28;20063;-68
2022/04/05 03:00:56;;;;;;;6.32;4.95;;;6.20;94.00;;;;;;5069089;28;20144;-68
2022/04/05 03:03:22;;;;;;;5.55;4.95;;;6.20;94.00;;;;;;5073452;28;20122;-68
2022/04/05 03:05:47;;;;;;;5.28;4.78;;;6.30;94.30;;;;;;5066575;28;20048;-68
2022/04/05 03:08:13;;;;;;;6.50;5.03;;;6.30;94.00;;;;;;5072059;28;20064;-68
2022/04/05 03:10:39;;;;;;;5.90;5.20;;;6.30;94.20;;;;;;5067375;28;20056;-68
2022/04/05 03:13:05;;;;;;;7.68;5.25;;;6.30;94.10;;;;;;5066058;28;20045;-68
2022/04/05 03:15:31;;;;;;;8.90;4.63;;;6.30;94.20;;;;;;5064708;28;20239;-68
2022/04/05 03:17:58;;;;;;;5.75;4.88;;;6.30;94.20;;;;;;5066753;28;20410;-68
2022/04/05 03:20:24;;;;;;;5.72;5.13;;;6.30;94.40;;;;;;5074903;28;20083;-68
2022/04/05 03:22:52;;;;;;;5.38;4.88;;;6.30;94.50;;;;;;5068402;28;20107;-68
2022/04/05 03:25:17;;;;;;;9.25;4.57;;;6.30;94.30;;;;;;5070938;28;20032;-68
2022/04/05 03:27:43;;;;;;;6.10;5.15;;;6.30;94.30;;;;;;5069258;28;20048;-68
2022/04/05 03:30:14;;;;;;;7.35;5.43;;;6.30;94.50;;;;;;5076323;28;20275;-68
2022/04/05 03:32:40;;;;;;;6.25;5.50;;;6.30;94.60;;;;;;5075531;28;20096;-68
2022/04/05 03:35:06;;;;;;;6.63;4.70;;;6.30;94.90;;;;;;5073313;28;20040;-68
2022/04/05 03:37:32;;;;;;;7.47;5.20;;;6.20;95.00;;;;;;5071728;28;20043;-68
2022/04/05 03:39:59;;;;;;;5.50;4.53;;;6.30;95.20;;;;;;5061561;28;20056;-68
2022/04/05 03:42:25;;;;;;;6.70;4.50;;;6.30;95.40;;;;;;5049549;28;22715;-68
2022/04/05 03:44:51;;;;;;;5.82;4.78;;;6.30;95.30;;;;;;5051025;28;20041;-68
2022/04/05 03:47:17;;;;;;;4.85;4.35;;;6.30;95.50;;;;;;5048466;28;20032;-68
2022/04/05 03:49:43;;;;;;;5.28;4.78;;;6.30;95.40;;;;;;5050697;28;20036;-69
2022/04/05 03:52:08;;;;;;;5.90;4.50;;;6.30;95.70;;;;;;5054595;28;20075;-68
2022/04/05 03:54:34;;;;;;;6.95;5.05;;;6.30;95.70;;;;;;5046995;28;20115;-68
2022/04/05 03:57:00;;;;;;;5.43;4.80;;;6.30;95.70;;;;;;5048270;28;20114;-69
2022/04/05 03:59:26;;;;;;;6.18;4.45;;;6.30;95.80;;;;;;5051542;28;20053;-69
2022/04/05 04:01:51;;;;;;;5.00;4.15;;;6.30;96.20;;;;;;5053312;28;20567;-69
2022/04/05 04:04:17;;;;;;;5.97;5.20;;;6.30;96.30;;;;;;5052279;28;20041;-68
2022/04/05 04:06:43;;;;;;;5.47;4.97;;;6.20;96.20;;;;;;5056633;28;20692;-69
2022/04/05 04:09:11;;;;;;;5.40;4.88;;;6.30;96.30;;;;;;5054322;28;20043;-68
2022/04/05 04:11:40;;;;;;;5.07;4.57;;;6.30;96.50;;;;;;5050473;28;20039;-69
2022/04/05 04:14:06;;;;;;;8.55;4.68;;;6.30;96.50;;;;;;5054467;28;20587;-69
2022/04/05 04:16:32;;;;;;;6.93;4.90;;;6.20;96.60;;;;;;5052552;28;20044;-70
2022/04/05 04:18:57;;;;;;;6.50;4.78;;;6.20;96.70;;;;;;5051355;28;20610;-69
2022/04/05 04:21:23;;;;;;;5.82;4.60;;;6.20;96.70;;;;;;5056314;28;20090;-68
2022/04/05 04:23:49;;;;;;;5.00;4.18;;;6.30;96.90;;;;;;5057141;28;20124;-69
2022/04/05 04:26:14;;;;;;;5.45;4.53;;;6.30;97.30;;;;;;5053631;28;20178;-69
2022/04/05 04:28:40;;;;;;;4.72;4.13;;;6.20;97.80;;;;;;5057997;28;20037;-69
2022/04/05 04:31:06;;;;;;;6.55;4.93;;;6.30;97.90;;;;;;5053834;28;20471;-69
2022/04/05 04:33:31;;;;;;;5.25;4.68;;;6.30;97.90;;;;;;5053452;28;20041;-69
2022/04/05 04:35:58;;;;;;;4.28;3.88;;;6.30;98.20;;;;;;5053913;28;20037;-68
2022/04/05 04:38:24;;;;;;;4.72;4.25;;;6.30;97.90;;;;;;5050887;28;20059;-69
2022/04/05 04:40:50;;;;;;;4.82;4.35;;;6.30;97.80;;;;;;5048165;28;20127;-68
2022/04/05 04:43:17;;;;;;;5.72;4.53;;;6.40;97.80;;;;;;5058244;28;20236;-68
2022/04/05 04:45:43;;;;;;;4.40;4.00;;;6.40;97.90;;;;;;5054919;28;20118;-68
2022/04/05 04:48:09;;;;;;;4.93;4.50;;;6.40;97.70;;;;;;5053973;28;20104;-68
2022/04/05 04:50:34;;;;;;;4.50;4.10;;;6.40;97.70;;;;;;5052880;28;20124;-68
2022/04/05 04:53:00;;;;;;;5.85;4.18;;;6.50;97.70;;;;;;5056228;28;20064;-68
2022/04/05 04:55:27;;;;;;;5.88;4.28;;;6.50;97.70;;;;;;5056178;28;20472;-68
2022/04/05 04:57:54;;;;;;;7.80;4.10;;;6.50;97.60;;;;;;5049692;28;20037;-68
2022/04/05 05:00:20;;;;;;;6.60;3.97;;;6.50;97.50;;;;;;5049950;28;20040;-68
2022/04/05 05:02:50;;;;;;;4.97;4.30;;;6.50;97.90;;;;;;5054762;28;20379;-69
2022/04/05 05:05:20;;;;;;;5.13;4.63;;;6.60;97.70;;;;;;5059908;28;20080;-68
2022/04/05 05:07:47;;;;;;;4.38;3.70;;;6.60;97.60;;;;;;5051859;28;20037;-69
2022/04/05 05:10:17;;;;;;;4.65;4.15;;;6.70;97.70;;;;;;5049300;28;20386;-68
2022/04/05 05:12:44;;;;;;;4.50;4.05;;;6.60;97.80;;;;;;5056474;28;20044;-68
2022/04/05 05:15:17;;;;;;;3.92;3.53;;;6.70;97.60;;;;;;5053283;28;20060;-68
2022/04/05 05:17:42;;;;;;;4.03;3.50;;;6.80;97.70;;;;;;5055993;28;20110;-68
2022/04/05 05:20:09;;;;;;;3.92;3.50;;;6.80;97.20;;;;;;5050749;28;20045;-68
2022/04/05 05:22:35;;;;;;;3.75;3.13;;;6.80;97.80;;;;;;5050670;28;20835;-68
2022/04/05 05:25:01;;;;;;;6.53;3.85;;;6.80;97.40;;;;;;5052922;28;20036;-68
2022/04/05 05:27:30;;;;;;;4.30;3.50;;;6.80;97.50;;;;;;5055970;28;20060;-68
2022/04/05 05:29:56;;;;;;;4.00;3.33;;;6.80;97.50;;;;;;5052942;28;20049;-69
2022/04/05 05:32:22;;;;;;;3.65;3.30;;;6.80;97.80;;;;;;5053890;28;20044;-68
2022/04/05 05:34:48;;;;;;;4.18;3.58;;;6.80;97.70;;;;;;5058120;28;20047;-68
2022/04/05 05:37:14;;;;;;;4.13;3.72;;;6.80;97.60;;;;;;5058471;28;20149;-68
2022/04/05 05:39:40;;;;;;;6.18;3.70;;;6.90;97.50;;;;;;5059202;28;20099;-68
2022/04/05 05:42:06;;;;;;;7.22;3.88;;;6.90;97.20;;;;;;5055858;28;20040;-68
2022/04/05 05:44:33;;;;;;;4.90;3.72;;;6.90;97.60;;;;;;5056816;28;20072;-68
2022/04/05 05:46:59;;;;;;;4.22;3.10;;;6.90;97.30;;;;;;5054672;28;20520;-68
2022/04/05 05:49:25;;;;;;;4.95;3.78;;;6.90;97.00;;;;;;5050625;28;20062;-69
2022/04/05 05:51:51;;;;;;;3.53;3.22;;;6.90;96.90;;;;;;5056134;28;20040;-68
2022/04/05 05:54:17;;;;;;;3.63;3.22;;;6.90;96.80;;;;;;5056135;28;20560;-68
2022/04/05 05:56:43;;;;;;;4.45;4.03;;;7.00;97.30;;;;;;5048139;28;20048;-68
2022/04/05 05:59:09;;;;;;;4.03;3.63;;;7.00;97.40;;;;;;5055519;28;20047;-68
2022/04/05 06:01:35;;;;;;;4.88;3.70;;;7.00;97.20;;;;;;5052326;28;20048;-68
2022/04/05 06:04:01;;;;;;;3.67;3.28;;;7.10;96.90;;;;;;5055030;28;20048;-68
2022/04/05 06:06:28;;;;;;;5.07;3.30;;;7.10;96.70;;;;;;5059475;28;20505;-68
2022/04/05 06:08:55;;;;;;;3.47;3.17;;;7.00;96.80;;;;;;5057850;28;20040;-68
2022/04/05 06:11:22;;;;;;;4.20;3.50;;;7.10;96.90;;;;;;5058150;28;20429;-68
2022/04/05 06:13:48;;;;;;;3.88;3.50;;;7.10;96.70;;;;;;5055763;28;20068;-68
2022/04/05 06:16:14;;;;;;;5.78;3.80;;;7.20;97.30;;;;;;5053228;28;20032;-68
2022/04/05 06:18:42;;;;;;;4.82;4.05;;;7.30;97.40;;;;;;5060382;28;20033;-69
2022/04/05 06:21:08;;;;;;;8.38;4.25;;;7.40;97.20;;;;;;5055116;28;20148;-69
2022/04/05 06:23:34;;;;;;;5.45;4.40;;;7.60;97.10;;;;;;5054746;28;20024;-68
2022/04/05 06:26:00;;;;;;;4.30;3.90;;;7.80;96.40;;;;;;5058257;28;20062;-69
2022/04/05 06:28:26;;;;;;;3.53;3.22;;;7.90;95.60;;;;;;5056278;28;20033;-68
2022/04/05 06:30:52;;;;;;;4.55;4.07;;;8.10;95.80;;;;;;5052356;28;20531;-68
2022/04/05 06:33:20;;;;;;;4.78;4.28;;;8.30;95.40;;;;;;5051462;28;20041;-69
2022/04/05 06:35:50;;;;;;;4.40;3.60;;;8.50;95.00;;;;;;5059957;28;20044;-68
2022/04/05 06:38:15;;;;;;;4.38;3.95;;;8.60;94.70;;;;;;5060597;28;20095;-69
2022/04/05 06:40:43;;;;;;;4.95;3.65;;;8.70;94.10;;;;;;5056400;28;20730;-68
2022/04/05 06:43:12;;;;;;;3.45;3.13;;;8.70;94.00;;;;;;5052261;28;20060;-68
2022/04/05 06:45:39;;;;;;;3.70;3.22;;;8.90;93.90;;;;;;5057112;28;20071;-68
2022/04/05 06:48:06;;;;;;;3.97;3.10;;;9.00;93.40;;;;;;5054612;28;20039;-68
2022/04/05 06:50:32;;;;;;;4.18;3.72;;;9.00;94.30;;;;;;5054967;28;20047;-68
2022/04/05 06:53:00;;;;;;;4.35;3.20;;;9.10;93.00;;;;;;5056937;28;20037;-69
2022/04/05 06:55:26;;;;;;;4.20;3.80;;;9.10;92.90;;;;;;5052414;28;20051;-68
2022/04/05 06:57:53;;;;;;;5.38;3.70;;;9.00;92.40;;;;;;5055612;28;20127;-68
2022/04/05 07:00:22;;;;;;;4.72;4.00;;;8.90;93.00;;;;;;5053993;28;20795;-68
2022/04/05 07:02:48;;;;;;;4.45;4.00;;;8.90;92.20;;;;;;5050239;28;20037;-68
2022/04/05 07:05:14;;;;;;;3.95;3.58;;;9.00;92.70;;;;;;5046610;28;20095;-69
2022/04/05 07:07:41;;;;;;;3.63;3.33;;;9.10;92.80;;;;;;5058985;28;20497;-69
2022/04/05 07:10:09;;;;;;;3.25;2.95;;;9.20;92.80;;;;;;5044786;28;20040;-68
2022/04/05 07:12:35;;;;;;;3.72;3.42;;;9.10;91.50;;;;;;5054839;28;20695;-68
2022/04/05 07:15:01;;;;;;;4.95;4.32;;;9.00;92.10;;;;;;5051948;28;20033;-69
2022/04/05 07:17:27;;;;;;;4.22;3.60;;;9.00;92.40;;;;;;5060046;28;20032;-68
2022/04/05 07:19:53;;;;;;;4.53;3.30;;;9.00;92.30;;;;;;5056292;28;20074;-68
2022/04/05 07:22:19;;;;;;;4.10;3.58;;;9.00;92.40;;;;;;5044834;28;20337;-68
2022/04/05 07:24:46;;;;;;;4.97;3.90;;;8.90;91.70;;;;;;5053752;28;20052;-68
2022/04/05 07:27:12;;;;;;;4.13;3.72;;;8.90;91.50;;;;;;5052520;28;20123;-68
2022/04/05 07:29:39;;;;;;;3.97;3.58;;;8.80;92.40;;;;;;5054486;28;20153;-68
2022/04/05 07:32:05;;;;;;;3.88;3.13;;;8.80;92.30;;;;;;5055970;28;20459;-67
2022/04/05 07:34:31;;;;;;;4.43;3.50;;;8.90;91.60;;;;;;5056248;28;20040;-68
2022/04/05 07:36:56;;;;;;;4.95;3.10;;;8.80;91.00;;;;;;5051939;28;20094;-67
2022/04/05 07:39:23;;;;;;;3.47;3.03;;;8.70;91.40;;;;;;5051300;28;20060;-68
2022/04/05 07:41:49;;;;;;;6.88;3.88;;;8.70;91.70;;;;;;5050026;28;20124;-68
2022/04/05 07:44:15;;;;;;;4.30;3.83;;;8.60;91.80;;;;;;5057466;28;20130;-68
2022/04/05 07:46:41;;;;;;;4.38;3.53;;;8.70;91.60;;;;;;5060252;28;20041;-67
2022/04/05 07:49:08;;;;;;;4.93;3.15;;;8.80;91.80;;;;;;5062426;28;20039;-67
2022/04/05 07:51:34;;;;;;;4.43;3.25;;;8.90;91.40;;;;;;5056192;28;20036;-68
2022/04/05 07:53:59;;;;;;;4.57;3.75;;;8.90;91.40;;;;;;5050457;28;20074;-68
2022/04/05 07:56:25;;;;;;;4.80;3.55;;;8.90;91.10;;;;;;5057641;28;20563;-67
2022/04/05 07:58:51;;;;;;;4.10;3.70;;;9.00;91.00;;;;;;5045966;28;20127;-68
2022/04/05 08:01:17;;;;;;;5.05;3.50;;;9.10;91.20;;;;;;5054145;28;20119;-67
2022/04/05 08:03:42;;;;;;;4.88;3.80;;;9.20;90.50;;;;;;5047602;28;20822;-68
2022/04/05 08:06:08;;;;;;;5.80;3.63;;;9.30;90.70;;;;;;5055173;28;20055;-68
2022/04/05 08:08:34;;;;;;;3.95;3.55;;;9.40;90.30;;;;;;5056530;28;20048;-68
2022/04/05 08:11:00;;;;;;;4.30;3.50;;;9.50;90.00;;;;;;5058228;28;20048;-67
2022/04/05 08:13:28;;;;;;;4.60;3.33;;;9.40;90.10;;;;;;5052101;28;20420;-67
2022/04/05 08:15:55;;;;;;;3.97;3.35;;;9.40;88.70;;;;;;5051186;28;20123;-68
2022/04/05 08:18:21;;;;;;;4.20;3.70;;;9.40;90.40;;;;;;5056963;28;20036;-67
2022/04/05 08:20:47;;;;;;;5.55;3.70;;;9.50;90.20;;;;;;5053193;28;20059;-68
2022/04/05 08:23:13;;;;;;;4.20;3.80;;;9.60;89.50;;;;;;5056254;28;20867;-68
2022/04/05 08:25:39;;;;;;;5.43;3.55;;;9.80;88.50;;;;;;5057607;28;20041;-68
2022/04/05 08:28:06;;;;;;;3.58;3.05;;;9.90;89.50;;;;;;5060713;28;20047;-68
2022/04/05 08:30:32;;;;;;;3.92;3.40;;;10.20;87.90;;;;;;5056314;28;20052;-68
2022/04/05 08:32:58;;;;;;;3.58;3.28;;;10.30;88.90;;;;;;5061731;28;20398;-67
2022/04/05 08:35:25;;;;;;;3.28;2.75;;;10.30;86.50;;;;;;5055498;28;20412;-67
2022/04/05 08:37:53;;;;;;;3.88;3.30;;;10.20;83.60;;;;;;5056514;28;20529;-68
2022/04/05 08:40:21;;;;;;;4.88;2.90;;;10.20;84.30;;;;;;5049268;28;20151;-68
2022/04/05 08:42:53;;;;;;;4.05;3.20;;;10.20;84.20;;;;;;5060214;28;20025;-68
2022/04/05 08:45:20;;;;;;;4.55;3.03;;;10.20;84.60;;;;;;5051739;28;20037;-68
2022/04/05 08:47:46;;;;;;;3.78;3.25;;;10.20;83.20;;;;;;5051028;28;20709;-67
2022/04/05 08:50:15;;;;;;;6.03;3.33;;;10.10;83.30;;;;;;5053698;28;20044;-68
2022/04/05 08:52:45;;;;;;;10.30;3.47;;;10.10;82.90;;;;;;5050366;28;20385;-67
2022/04/05 08:55:12;;;;;;;3.15;2.60;;;10.10;82.30;;;;;;5051740;28;20451;-68
2022/04/05 08:57:38;;;;;;;3.10;2.47;;;10.10;82.80;;;;;;5045516;28;20044;-67
2022/04/05 09:00:08;;;;;;;3.03;2.72;;;10.10;84.00;;;;;;5044506;28;20040;-68
2022/04/05 09:02:35;;;;;;;2.60;2.40;;;10.10;81.10;;;;;;5057725;28;20039;-68
2022/04/05 09:05:01;;;;;;;3.65;2.35;;;10.20;81.50;;;;;;5048966;28;22362;-68
2022/04/05 09:07:35;;;;;;;3.78;2.33;;;10.20;80.70;;;;;;5050683;28;20044;-67
2022/04/05 09:10:15;;;;;;;5.47;2.58;;;10.30;79.20;;;;;;5051320;28;23604;-68
2022/04/05 09:12:46;;;;;;;2.83;2.33;;;10.40;79.70;;;;;;5049673;28;20032;-68
2022/04/05 09:15:17;;;;;;;2.65;2.25;;;10.40;79.20;;;;;;5053540;28;20490;-68
2022/04/05 09:17:45;;;;;;;2.70;2.50;;;10.40;79.80;;;;;;5052088;28;20075;-68
2022/04/05 09:20:13;;;;;;;3.05;2.70;;;10.30;79.20;;;;;;5049888;28;20639;-68
2022/04/05 09:22:39;;;;;;;2.70;2.22;;;10.30;83.10;;;;;;5053889;28;20033;-68
2022/04/05 09:25:16;;;;;;;2.50;2.30;;;10.40;79.70;;;;;;5049807;28;20325;-67
2022/04/05 09:27:46;;;;;;;4.35;2.67;;;10.40;80.30;;;;;;5056233;28;20037;-68
2022/04/05 09:30:19;;;;;;;3.72;2.90;;;10.30;79.70;;;;;;5056368;28;20139;-67
2022/04/05 09:32:48;;;;;;;3.17;2.55;;;10.20;81.50;;;;;;5053194;28;20028;-68
2022/04/05 09:35:19;;;;;;;5.82;2.47;;;10.20;81.20;;;;;;5044901;28;20136;-68
2022/04/05 09:37:45;;;;;;;3.08;2.78;;;10.10;82.60;;;;;;5053857;28;20036;-68
2022/04/05 09:40:24;;;;;;;2.95;2.70;;;10.10;82.90;;;;;;5052983;28;20062;-68
2022/04/05 09:43:17;;;;;;;4.60;2.80;;;10.00;83.10;;;;;;5058016;28;20045;-68
2022/04/05 09:45:59;;;;;;;;;;;10.00;82.10;;;;;;5047162;28;20143;-68
2022/04/05 09:48:30;;;;;;;4.33;2.70;;;10.00;84.40;;;;;;5047919;28;19912;-67
2022/04/05 09:51:10;;;;;;;7.15;2.97;;;10.00;86.90;;;;;;5049945;28;20120;-68
2022/04/05 09:53:38;;;;;;;3.97;3.20;;;10.00;84.90;;;;;;5049567;28;20047;-68
2022/04/05 09:56:26;;;;;;;3.40;3.00;;;9.90;87.70;;;;;;5051338;28;20106;-68
2022/04/05 09:58:54;;;;;;;3.35;2.72;;;9.90;87.10;;;;;;5051641;28;20086;-68
2022/04/05 10:01:24;;;;;;;3.55;2.63;;;10.00;87.70;;;;;;5051027;28;20053;-68
2022/04/05 10:03:56;;;;;;;3.58;3.20;;;9.90;89.60;;;;;;5044691;28;20603;-68
2022/04/05 10:06:22;;;;;;;5.30;3.25;;;9.80;87.50;;;;;;5052582;28;20569;-68
2022/04/05 10:08:48;;;;;;;3.25;2.92;;;9.70;89.30;;;;;;5042249;28;20044;-68
2022/04/05 10:11:14;;;;;;;3.17;2.88;;;9.70;89.60;;;;;;5048918;28;20043;-67
2022/04/05 10:13:41;;;;;;;3.35;2.92;;;9.70;88.30;;;;;;5046227;28;20092;-68
2022/04/05 10:16:10;;;;;;;3.28;2.97;;;9.70;89.50;;;;;;5047561;28;20448;-68
2022/04/05 10:18:36;;;;;;;2.90;2.67;;;9.60;88.90;;;;;;5052807;28;20527;-68
2022/04/05 10:21:04;;;;;;;4.03;3.22;;;9.60;89.80;;;;;;5056393;28;20052;-68
2022/04/05 10:23:31;;;;;;;4.03;2.67;;;9.60;89.10;;;;;;5046166;28;20096;-67
2022/04/05 10:25:58;;;;;;;3.03;2.72;;;9.50;88.50;;;;;;5052689;28;20025;-68
2022/04/05 10:28:30;;;;;;;5.82;2.88;;;9.50;88.60;;;;;;5051755;28;20061;-68
2022/04/05 10:31:05;;;;;;;3.65;2.80;;;9.50;89.70;;;;;;5050336;28;20037;-68
2022/04/05 10:33:33;;;;;;;7.00;3.70;;;9.50;89.20;;;;;;5048502;28;20107;-68
2022/04/05 10:36:00;;;;;;;5.90;3.10;;;9.40;90.40;;;;;;5053144;28;20041;-68
2022/04/05 10:38:29;;;;;;;6.03;3.30;;;9.30;90.50;;;;;;5054360;28;20382;-68
2022/04/05 10:41:16;;;;;;;7.15;3.55;;;9.30;90.30;;;;;;5051787;28;20101;-68
2022/04/05 10:43:43;;;;;;;5.53;2.85;;;9.30;90.30;;;;;;5048695;28;20036;-68
2022/04/05 10:46:09;;;;;;;3.47;3.13;;;9.30;90.70;;;;;;5051830;28;20432;-68
2022/04/05 10:48:35;;;;;;;4.57;2.80;;;9.30;91.70;;;;;;5047089;28;20033;-68
2022/04/05 10:51:01;;;;;;;3.70;3.10;;;9.30;92.60;;;;;;5051581;28;20044;-68
2022/04/05 10:53:34;;;;;;;6.65;5.47;;;9.20;93.10;;;;;;5048896;28;20053;-68
2022/04/05 10:56:03;;;;;;;6.13;3.83;;;9.10;94.50;;;;;;5055061;28;20028;-69
2022/04/05 10:58:37;;;;;;;3.22;2.92;;;9.10;94.70;;;;;;5054760;28;20033;-69
2022/04/05 11:01:35;;;;;;;4.80;4.40;;;9.10;94.60;;;;;;5052368;28;20055;-69
2022/04/05 11:04:14;;;;;;;27.08;18.55;;;9.00;95.20;;;;;;5034573;28;20437;-68
2022/04/05 11:06:58;;;;;;;4.15;3.72;;;9.10;95.70;;;;;;5049547;28;20465;-68
2022/04/05 11:09:27;;;;;;;4.40;3.08;;;9.20;95.40;;;;;;5046237;28;20074;-68
2022/04/05 11:11:54;;;;;;;3.55;3.25;;;9.20;95.30;;;;;;5045497;28;20040;-68
2022/04/05 11:14:40;;;;;;;14.07;12.60;;;9.10;95.10;;;;;;5053466;28;20060;-70
2022/04/05 11:17:08;;;;;;;5.97;4.57;;;9.10;95.50;;;;;;5053939;28;20036;-68
2022/04/05 11:19:37;;;;;;;3.13;2.88;;;9.10;95.40;;;;;;5045101;28;20052;-68
2022/04/05 11:22:22;;;;;;;22.50;17.30;;;9.10;95.70;;;;;;5045294;28;20048;-68
2022/04/05 11:25:00;;;;;;;6.57;5.82;;;9.20;95.90;;;;;;5046315;28;20253;-68
2022/04/05 11:27:44;;;;;;;8.82;6.15;;;9.30;95.60;;;;;;5048840;28;20094;-68
2022/04/05 11:30:27;;;;;;;4.22;3.53;;;9.30;95.70;;;;;;5050281;28;20039;-68
2022/04/05 11:33:18;;;;;;;4.00;3.17;;;9.30;95.50;;;;;;5046255;28;20033;-68
2022/04/05 11:35:43;;;;;;;4.03;2.90;;;9.30;95.50;;;;;;5049040;28;20041;-68
2022/04/05 11:38:36;;;;;;;3.22;2.67;;;9.20;95.60;;;;;;5048522;28;20041;-68
2022/04/05 11:41:11;;;;;;;2.63;2.42;;;9.20;95.90;;;;;;5018355;28;20127;-69
2022/04/05 11:43:44;;;;;;;7.32;2.55;;;9.20;95.40;;;;;;5043181;28;20056;-68
2022/04/05 11:46:21;;;;;;;3.28;2.65;;;9.30;95.40;;;;;;5050498;28;20405;-68
2022/04/05 11:48:50;;;;;;;3.30;2.85;;;9.30;95.30;;;;;;5046390;28;20556;-68
2022/04/05 11:51:18;;;;;;;4.97;3.60;;;9.30;95.50;;;;;;5050193;28;20033;-68
2022/04/05 11:53:46;;;;;;;3.70;3.00;;;9.30;95.50;;;;;;5042584;28;20092;-68
2022/04/05 11:56:17;;;;;;;4.07;2.90;;;9.40;95.60;;;;;;5052817;28;20033;-68
2022/04/05 11:58:47;;;;;;;4.30;2.90;;;9.40;95.80;;;;;;5046127;28;20060;-68
2022/04/05 12:01:15;;;;;;;2.85;2.50;;;9.40;95.30;;;;;;5041114;28;20060;-68
2022/04/05 12:03:55;;;;;;;2.53;2.33;;;9.40;95.10;;;;;;5045728;28;20036;-68
2022/04/05 12:06:29;;;;;;;3.33;2.53;;;9.40;95.40;;;;;;5050817;28;20531;-68
2022/04/05 12:08:55;;;;;;;2.88;2.63;;;9.50;95.30;;;;;;5043774;28;20640;-68
2022/04/05 12:11:24;;;;;;;1.98;1.80;;;9.60;95.50;;;;;;5051389;28;20346;-68
2022/04/05 12:14:09;;;;;;;3.00;2.22;;;9.60;95.50;;;;;;5047658;28;20080;-68
2022/04/05 12:16:50;;;;;;;2.75;2.55;;;9.50;95.60;;;;;;5054522;28;20064;-68
2022/04/05 12:19:26;;;;;;;2.75;2.55;;;9.50;95.60;;;;;;5056196;28;20047;-68
2022/04/05 12:22:03;;;;;;;3.28;2.72;;;9.50;96.30;;;;;;5053553;28;20102;-68
2022/04/05 12:24:30;;;;;;;2.92;1.80;;;9.50;96.00;;;;;;5054604;28;20064;-68
2022/04/05 12:27:00;;;;;;;2.65;2.38;;;9.50;96.30;;;;;;5051569;28;20052;-68
2022/04/05 12:29:27;;;;;;;2.67;2.45;;;9.50;96.20;;;;;;5053793;28;20720;-68
2022/04/05 12:31:54;;;;;;;2.50;2.30;;;9.50;96.30;;;;;;5044241;28;20037;-68
2022/04/05 12:34:21;;;;;;;2.55;2.35;;;9.60;96.40;;;;;;5052791;28;20044;-69
2022/04/05 12:36:54;;;;;;;2.50;2.30;;;9.60;96.20;;;;;;5048109;28;20075;-68
2022/04/05 12:39:24;;;;;;;3.85;2.13;;;9.60;96.20;;;;;;5052844;28;20028;-69
2022/04/05 12:41:57;;;;;;;2.30;2.10;;;9.60;96.00;;;;;;5055270;28;20048;-68
2022/04/05 12:44:26;;;;;;;2.20;2.00;;;9.60;96.30;;;;;;5054420;28;20029;-68
2022/04/05 12:46:54;;;;;;;2.35;2.15;;;9.70;96.20;;;;;;5048594;28;20042;-68
2022/04/05 12:49:27;;;;;;;3.25;2.67;;;9.70;96.20;;;;;;5054505;28;20040;-68
2022/04/05 12:51:53;;;;;;;;;;;9.80;96.40;;;;;;5055226;28;20038;-68
2022/04/05 12:54:32;;;;;;;3.33;2.25;;;9.80;96.20;;;;;;5052069;28;19916;-68
2022/04/05 12:57:17;;;;;;;3.38;1.85;;;9.80;95.90;;;;;;5056160;28;20040;-68
2022/04/05 12:59:44;;;;;;;6.57;2.28;;;9.80;96.20;;;;;;5053324;28;20764;-69
2022/04/05 13:02:17;;;;;;;2.40;2.17;;;9.80;96.00;;;;;;5047840;28;20445;-68